createdAt,value
2018-04-24T00:01:39.546Z,11.20
2018-04-24T00:04:06.312Z,11.20
2018-04-24T00:06:32.325Z,11.20
2018-04-24T00:08:58.328Z,11.20
2018-04-24T00:11:24.333Z,11.10
2018-04-24T00:13:50.333Z,11.00
2018-04-24T00:16:17.103Z,10.90
2018-04-24T00:18:43.844Z,10.80
2018-04-24T00:21:10.601Z,10.70
2018-04-24T00:23:37.344Z,10.70
2018-04-24T00:26:04.167Z,10.60
2018-04-24T00:28:30.851Z,10.50
2018-04-24T00:30:57.616Z,10.40
2018-04-24T00:33:24.366Z,10.40
2018-04-24T00:35:51.110Z,10.40
2018-04-24T00:38:17.929Z,10.30
2018-04-24T00:40:43.928Z,10.30
2018-04-24T00:43:09.946Z,10.30
2018-04-24T00:45:35.963Z,10.20
2018-04-24T00:48:01.964Z,10.20
2018-04-24T00:50:27.970Z,10.20
2018-04-24T00:52:53.986Z,10.20
2018-04-24T00:55:20.741Z,10.20
2018-04-24T00:57:46.744Z,10.10
2018-04-24T01:00:12.750Z,10.10
2018-04-24T01:02:38.752Z,10.10
2018-04-24T01:05:04.769Z,10.20
2018-04-24T01:07:31.522Z,10.30
2018-04-24T01:09:58.268Z,10.40
2018-04-24T01:12:25.039Z,10.40
2018-04-24T01:14:51.762Z,10.40
2018-04-24T01:17:17.761Z,10.40
2018-04-24T01:19:43.771Z,10.40
2018-04-24T01:22:09.776Z,10.40
2018-04-24T01:24:35.774Z,10.40
2018-04-24T01:27:01.785Z,10.40
2018-04-24T01:29:27.798Z,10.40
2018-04-24T01:31:54.541Z,10.40
2018-04-24T01:34:21.341Z,10.50
2018-04-24T01:36:47.332Z,10.40
2018-04-24T01:39:14.183Z,10.50
2018-04-24T01:41:40.918Z,10.50
2018-04-24T01:44:06.925Z,10.50
2018-04-24T01:46:32.922Z,10.50
2018-04-24T01:48:58.929Z,10.50
2018-04-24T01:51:24.937Z,10.50
2018-04-24T01:53:50.933Z,10.50
2018-04-24T01:56:16.929Z,10.40
2018-04-24T01:58:42.940Z,10.40
2018-04-24T02:01:08.945Z,10.40
2018-04-24T02:03:34.953Z,10.40
2018-04-24T02:06:01.701Z,10.40
2018-04-24T02:08:28.445Z,10.40
2018-04-24T02:10:54.449Z,10.40
2018-04-24T02:13:20.469Z,10.40
2018-04-24T02:15:46.464Z,10.40
2018-04-24T02:18:13.218Z,10.40
2018-04-24T02:20:39.970Z,10.50
2018-04-24T02:23:06.714Z,10.50
2018-04-24T02:25:33.463Z,10.50
2018-04-24T02:28:00.222Z,10.40
2018-04-24T02:30:27.012Z,10.40
2018-04-24T02:32:53.062Z,10.40
2018-04-24T02:35:19.066Z,10.30
2018-04-24T02:37:45.065Z,10.40
2018-04-24T02:40:11.078Z,10.40
2018-04-24T02:42:37.082Z,10.40
2018-04-24T02:45:03.242Z,10.40
2018-04-24T02:47:29.230Z,10.40
2018-04-24T02:49:55.977Z,10.20
2018-04-24T02:52:22.728Z,10.20
2018-04-24T02:54:49.480Z,10.10
2018-04-24T02:57:16.216Z,10.10
2018-04-24T02:59:42.218Z,10.00
2018-04-24T03:02:08.229Z,10.00
2018-04-24T03:04:34.285Z,10.10
2018-04-24T03:07:00.305Z,10.10
2018-04-24T03:09:26.309Z,10.00
2018-04-24T03:11:53.089Z,10.10
2018-04-24T03:14:19.816Z,10.20
2018-04-24T03:16:46.561Z,10.10
2018-04-24T03:19:13.365Z,10.00
2018-04-24T03:21:39.372Z,10.00
2018-04-24T03:24:05.384Z,9.90
2018-04-24T03:26:31.398Z,9.90
2018-04-24T03:28:57.405Z,9.80
2018-04-24T03:31:23.426Z,9.80
2018-04-24T03:33:49.459Z,9.80
2018-04-24T03:36:15.492Z,9.80
2018-04-24T03:38:41.521Z,9.90
2018-04-24T03:41:08.301Z,10.00
2018-04-24T03:43:34.324Z,9.90
2018-04-24T03:46:00.349Z,10.00
2018-04-24T03:48:26.371Z,10.00
2018-04-24T03:50:53.158Z,9.90
2018-04-24T03:53:19.189Z,9.90
2018-04-24T03:55:45.254Z,9.80
2018-04-24T03:58:11.274Z,9.90
2018-04-24T04:00:37.306Z,9.80
2018-04-24T04:03:03.336Z,10.00
2018-04-24T04:05:29.381Z,9.90
2018-04-24T04:07:55.393Z,10.00
2018-04-24T04:10:21.428Z,10.00
2018-04-24T04:12:47.464Z,10.00
2018-04-24T04:15:13.478Z,10.10
2018-04-24T04:17:52.592Z,10.10
2018-04-24T04:20:31.090Z,10.10
2018-04-24T04:23:09.530Z,10.00
2018-04-24T04:25:35.572Z,10.00
2018-04-24T04:28:01.589Z,10.10
2018-04-24T04:30:28.469Z,10.20
2018-04-24T04:32:54.529Z,10.30
2018-04-24T04:35:20.532Z,10.20
2018-04-24T04:37:46.578Z,10.30
2018-04-24T04:40:12.601Z,10.30
2018-04-24T04:42:38.631Z,10.40
2018-04-24T04:45:04.683Z,10.40
2018-04-24T04:47:30.705Z,10.40
2018-04-24T04:49:56.724Z,10.40
2018-04-24T04:52:22.757Z,10.40
2018-04-24T04:54:48.773Z,10.40
2018-04-24T04:57:15.549Z,10.40
2018-04-24T04:59:41.577Z,10.40
2018-04-24T05:02:07.605Z,10.40
2018-04-24T05:04:34.361Z,10.40
2018-04-24T05:07:01.125Z,10.50
2018-04-24T05:09:27.132Z,10.50
2018-04-24T05:11:53.159Z,10.60
2018-04-24T05:14:19.188Z,10.60
2018-04-24T05:16:45.334Z,10.70
2018-04-24T05:19:11.366Z,10.90
2018-04-24T05:21:37.410Z,11.00
2018-04-24T05:24:03.430Z,11.10
2018-04-24T05:26:29.550Z,11.10
2018-04-24T05:28:55.523Z,11.30
2018-04-24T05:31:22.280Z,11.70
2018-04-24T05:33:48.286Z,11.60
2018-04-24T05:36:14.283Z,11.80
2018-04-24T05:38:40.285Z,11.80
2018-04-24T05:41:07.030Z,11.70
2018-04-24T05:43:33.041Z,11.70
2018-04-24T05:45:59.042Z,11.70
2018-04-24T05:48:25.061Z,11.70
2018-04-24T05:50:51.798Z,11.90
2018-04-24T05:53:17.804Z,11.90
2018-04-24T05:55:43.813Z,12.00
2018-04-24T05:58:09.826Z,12.20
2018-04-24T06:00:35.833Z,12.40
2018-04-24T06:03:01.871Z,12.50
2018-04-24T06:05:27.850Z,12.70
2018-04-24T06:07:53.853Z,12.90
2018-04-24T06:10:20.651Z,13.20
2018-04-24T06:12:46.653Z,13.30
2018-04-24T06:15:12.669Z,13.50
2018-04-24T06:17:38.669Z,13.40
2018-04-24T06:20:04.680Z,13.40
2018-04-24T06:22:30.714Z,13.50
2018-04-24T06:24:57.421Z,13.80
2018-04-24T06:27:23.423Z,13.80
2018-04-24T06:29:49.421Z,13.80
2018-04-24T06:32:15.421Z,13.80
2018-04-24T06:34:41.431Z,13.70
2018-04-24T06:37:07.434Z,13.90
2018-04-24T06:39:33.440Z,14.10
2018-04-24T06:42:00.169Z,14.00
2018-04-24T06:44:26.172Z,14.00
2018-04-24T06:46:52.183Z,14.40
2018-04-24T06:49:18.926Z,16.70
2018-04-24T06:51:45.661Z,17.90
2018-04-24T06:54:11.673Z,17.90
2018-04-24T06:56:37.685Z,18.20
2018-04-24T06:59:03.705Z,19.10
2018-04-24T07:01:29.697Z,19.50
2018-04-24T07:03:55.711Z,19.40
2018-04-24T07:06:21.791Z,20.30
2018-04-24T07:08:47.726Z,20.60
2018-04-24T07:11:14.543Z,20.30
2018-04-24T07:13:40.563Z,20.30
2018-04-24T07:16:06.557Z,20.40
2018-04-24T07:18:33.308Z,21.10
2018-04-24T07:21:00.059Z,20.60
2018-04-24T07:23:26.809Z,20.80
2018-04-24T07:25:53.553Z,20.60
2018-04-24T07:28:19.557Z,20.60
2018-04-24T07:30:45.555Z,20.60
2018-04-24T07:33:11.581Z,21.10
2018-04-24T07:35:38.361Z,21.30
2018-04-24T07:38:04.375Z,21.30
2018-04-24T07:40:30.408Z,21.10
2018-04-24T07:42:56.452Z,22.00
2018-04-24T07:45:23.196Z,22.10
2018-04-24T07:47:49.975Z,21.80
2018-04-24T07:50:15.982Z,21.80
2018-04-24T07:52:42.746Z,22.60
2018-04-24T07:55:08.761Z,22.60
2018-04-24T07:57:35.523Z,23.20
2018-04-24T08:00:02.305Z,22.50
2018-04-24T08:02:28.325Z,22.40
2018-04-24T08:04:54.353Z,22.50
2018-04-24T08:07:20.388Z,22.20
2018-04-24T08:09:47.157Z,22.70
2018-04-24T08:12:13.182Z,22.70
2018-04-24T08:14:39.957Z,23.20
2018-04-24T08:17:06.039Z,23.20
2018-04-24T08:19:32.060Z,22.50
2018-04-24T08:21:58.094Z,21.70
2018-04-24T08:24:24.247Z,21.90
2018-04-24T08:26:50.297Z,21.90
2018-04-24T08:29:16.337Z,21.80
2018-04-24T08:31:42.362Z,21.70
2018-04-24T08:34:09.130Z,20.70
2018-04-24T08:36:35.901Z,19.40
2018-04-24T08:39:02.039Z,19.40
2018-04-24T08:41:27.984Z,18.90
2018-04-24T08:43:54.006Z,18.90
2018-04-24T08:46:20.782Z,20.40
2018-04-24T08:48:46.810Z,20.30
2018-04-24T08:51:12.833Z,20.40
2018-04-24T08:53:38.868Z,21.50
2018-04-24T08:56:05.633Z,21.50
2018-04-24T08:58:31.641Z,21.40
2018-04-24T09:00:58.412Z,22.60
2018-04-24T09:03:24.447Z,22.60
2018-04-24T09:05:51.229Z,22.70
2018-04-24T09:08:17.250Z,22.70
2018-04-24T09:10:43.270Z,21.80
2018-04-24T09:13:09.289Z,21.90
2018-04-24T09:15:36.058Z,22.90
2018-04-24T09:18:02.841Z,23.60
2018-04-24T09:20:28.861Z,23.60
2018-04-24T09:22:54.893Z,24.20
2018-04-24T09:25:20.909Z,24.90
2018-04-24T09:27:47.679Z,24.60
2018-04-24T09:30:13.722Z,24.60
2018-04-24T09:32:39.760Z,24.60
2018-04-24T09:35:05.790Z,24.20
2018-04-24T09:37:31.789Z,23.20
2018-04-24T09:39:58.526Z,20.80
2018-04-24T09:42:24.533Z,20.70
2018-04-24T09:44:50.534Z,19.90
2018-04-24T09:47:17.277Z,18.60
2018-04-24T09:49:43.268Z,18.60
2018-04-24T09:52:09.268Z,18.00
2018-04-24T09:54:35.265Z,17.60
2018-04-24T09:57:01.262Z,17.20
2018-04-24T09:59:27.262Z,17.10
2018-04-24T10:01:54.025Z,18.40
2018-04-24T10:04:20.018Z,18.40
2018-04-24T10:06:46.009Z,19.30
2018-04-24T10:09:12.014Z,20.60
2018-04-24T10:11:38.757Z,20.60
2018-04-24T10:14:04.774Z,20.60
2018-04-24T10:16:30.778Z,20.30
2018-04-24T10:18:56.773Z,19.70
2018-04-24T10:21:23.521Z,19.20
2018-04-24T10:23:49.522Z,19.20
2018-04-24T10:26:15.525Z,19.20
2018-04-24T10:28:41.534Z,19.80
2018-04-24T10:31:08.277Z,20.90
2018-04-24T10:33:34.332Z,20.90
2018-04-24T10:36:01.081Z,19.70
2018-04-24T10:38:27.858Z,19.30
2018-04-24T10:40:53.877Z,19.30
2018-04-24T10:43:20.646Z,18.20
2018-04-24T10:45:46.668Z,18.20
2018-04-24T10:48:13.446Z,18.30
2018-04-24T10:50:39.469Z,18.30
2018-04-24T10:53:05.490Z,19.40
2018-04-24T10:55:32.254Z,22.20
2018-04-24T10:57:58.265Z,22.10
2018-04-24T11:00:24.289Z,22.60
2018-04-24T11:02:50.321Z,22.60
2018-04-24T11:05:16.351Z,22.60
2018-04-24T11:07:42.365Z,22.00
2018-04-24T11:10:08.397Z,21.50
2018-04-24T11:12:34.424Z,21.30
2018-04-24T11:15:00.461Z,21.00
2018-04-24T11:17:26.489Z,21.60
2018-04-24T11:19:52.540Z,22.70
2018-04-24T11:22:18.969Z,23.50
2018-04-24T11:24:44.989Z,24.00
2018-04-24T11:27:11.755Z,24.10
2018-04-24T11:29:37.785Z,24.10
2018-04-24T11:32:03.817Z,24.80
2018-04-24T11:34:30.601Z,25.40
2018-04-24T11:36:56.609Z,25.40
2018-04-24T11:39:22.651Z,25.80
2018-04-24T11:41:48.669Z,26.50
2018-04-24T11:44:15.450Z,24.00
2018-04-24T11:46:41.461Z,23.90
2018-04-24T11:49:08.255Z,22.90
2018-04-24T11:51:34.282Z,22.90
2018-04-24T11:54:00.305Z,22.80
2018-04-24T11:56:26.333Z,23.30
2018-04-24T11:58:52.349Z,23.50
2018-04-24T12:01:19.114Z,24.80
2018-04-24T12:03:45.929Z,24.60
2018-04-24T12:06:11.971Z,24.60
2018-04-24T12:08:37.988Z,23.40
2018-04-24T12:11:04.025Z,22.70
2018-04-24T12:13:30.044Z,22.40
2018-04-24T12:15:56.078Z,22.50
2018-04-24T12:18:22.093Z,23.00
2018-04-24T12:20:48.113Z,23.40
2018-04-24T12:23:14.874Z,23.80
2018-04-24T12:25:41.633Z,23.40
2018-04-24T12:28:07.655Z,23.40
2018-04-24T12:30:33.700Z,23.70
2018-04-24T12:33:00.457Z,23.30
2018-04-24T12:35:26.475Z,23.20
2018-04-24T12:37:53.205Z,23.10
2018-04-24T12:40:19.224Z,23.00
2018-04-24T12:42:45.225Z,22.20
2018-04-24T12:45:11.225Z,21.90
2018-04-24T12:47:37.239Z,22.70
2018-04-24T12:50:03.237Z,22.80
2018-04-24T12:52:29.237Z,22.50
2018-04-24T12:54:55.236Z,22.50
2018-04-24T12:57:21.235Z,22.40
2018-04-24T12:59:47.232Z,22.60
2018-04-24T13:02:13.238Z,22.80
2018-04-24T13:04:39.249Z,22.70
2018-04-24T13:07:05.253Z,22.50
2018-04-24T13:09:31.997Z,22.80
2018-04-24T13:11:58.001Z,22.70
2018-04-24T13:14:24.006Z,23.10
2018-04-24T13:16:50.011Z,22.70
2018-04-24T13:19:16.000Z,23.10
2018-04-24T13:21:42.005Z,23.50
2018-04-24T13:24:07.997Z,23.80
2018-04-24T13:26:33.993Z,24.00
2018-04-24T13:28:59.984Z,23.50
2018-04-24T13:31:25.981Z,23.40
2018-04-24T13:33:51.977Z,23.30
2018-04-24T13:36:18.717Z,23.90
2018-04-24T13:38:45.456Z,23.50
2018-04-24T13:41:11.503Z,23.50
2018-04-24T13:43:37.474Z,23.70
2018-04-24T13:46:03.490Z,23.90
2018-04-24T13:48:29.508Z,23.50
2018-04-24T13:50:56.252Z,23.60
2018-04-24T13:53:22.249Z,23.60
2018-04-24T13:55:48.254Z,23.30
2018-04-24T13:58:14.263Z,23.70
2018-04-24T14:00:41.008Z,23.20
2018-04-24T14:03:07.014Z,23.20
2018-04-24T14:05:33.020Z,23.40
2018-04-24T14:07:59.028Z,23.50
2018-04-24T14:10:25.768Z,24.00
2018-04-24T14:12:52.521Z,24.50
2018-04-24T14:15:19.286Z,24.80
2018-04-24T14:17:46.040Z,24.90
2018-04-24T14:20:12.777Z,25.00
2018-04-24T14:22:39.523Z,24.60
2018-04-24T14:25:05.613Z,24.50
2018-04-24T14:27:31.629Z,24.30
2018-04-24T14:29:57.624Z,23.90
2018-04-24T14:32:23.633Z,24.00
2018-04-24T14:34:49.640Z,23.50
2018-04-24T14:37:15.636Z,23.90
2018-04-24T14:39:41.657Z,23.90
2018-04-24T14:42:07.657Z,24.00
2018-04-24T14:44:33.659Z,24.20
2018-04-24T14:47:00.400Z,24.80
2018-04-24T14:49:27.145Z,25.00
2018-04-24T14:51:53.881Z,24.80
2018-04-24T14:54:19.898Z,24.80
2018-04-24T14:56:45.957Z,24.70
2018-04-24T14:59:12.793Z,24.90
2018-04-24T15:01:38.800Z,24.80
2018-04-24T15:04:04.817Z,24.80
2018-04-24T15:06:40.801Z,24.70
2018-04-24T15:09:06.819Z,24.70
2018-04-24T15:11:33.567Z,24.40
2018-04-24T15:14:00.325Z,23.70
2018-04-24T15:16:27.057Z,23.20
2018-04-24T15:18:53.057Z,23.20
2018-04-24T15:21:19.058Z,23.20
2018-04-24T15:23:45.074Z,23.70
2018-04-24T15:26:11.817Z,24.00
2018-04-24T15:28:38.638Z,24.20
2018-04-24T15:31:04.710Z,24.10
2018-04-24T15:33:30.677Z,23.90
2018-04-24T15:35:56.678Z,23.80
2018-04-24T15:38:23.433Z,23.20
2018-04-24T15:40:50.237Z,23.00
2018-04-24T15:43:16.233Z,22.90
2018-04-24T15:45:43.044Z,22.80
2018-04-24T15:48:09.171Z,22.80
2018-04-24T15:50:35.065Z,22.60
2018-04-24T15:53:01.065Z,22.60
2018-04-24T15:55:27.082Z,22.50
2018-04-24T15:57:53.085Z,22.50
2018-04-24T16:00:19.097Z,22.60
2018-04-24T16:02:45.860Z,22.70
2018-04-24T16:05:12.604Z,22.60
2018-04-24T16:07:39.355Z,22.70
2018-04-24T16:10:06.142Z,22.80
2018-04-24T16:12:32.178Z,22.80
2018-04-24T16:14:58.180Z,22.70
2018-04-24T16:17:24.923Z,22.80
2018-04-24T16:19:51.670Z,22.70
2018-04-24T16:22:17.660Z,22.70
2018-04-24T16:24:43.667Z,22.20
2018-04-24T16:27:09.748Z,21.90
2018-04-24T16:29:36.494Z,21.30
2018-04-24T16:32:02.488Z,21.20
2018-04-24T16:34:28.525Z,21.00
2018-04-24T16:36:54.541Z,20.70
2018-04-24T16:39:21.557Z,20.20
2018-04-24T16:41:48.072Z,20.20
2018-04-24T16:44:14.073Z,20.20
2018-04-24T16:46:41.001Z,19.90
2018-04-24T16:49:06.997Z,19.80
2018-04-24T16:51:32.997Z,19.80
2018-04-24T16:53:58.997Z,19.70
2018-04-24T16:56:25.045Z,19.70
2018-04-24T16:58:51.057Z,19.70
2018-04-24T17:01:17.233Z,19.70
2018-04-24T17:03:43.238Z,19.80
2018-04-24T17:06:09.261Z,19.70
2018-04-24T17:08:35.265Z,19.70
2018-04-24T17:11:02.023Z,19.70
2018-04-24T17:13:28.184Z,19.70
2018-04-24T17:15:54.189Z,19.80
2018-04-24T17:18:20.946Z,19.70
2018-04-24T17:20:47.750Z,19.70
2018-04-24T17:23:13.748Z,19.60
2018-04-24T17:25:39.833Z,19.70
2018-04-24T17:28:05.793Z,19.70
2018-04-24T17:30:32.542Z,19.50
2018-04-24T17:32:59.294Z,19.30
2018-04-24T17:35:26.115Z,19.00
2018-04-24T17:37:52.129Z,19.00
2018-04-24T17:40:18.149Z,18.90
2018-04-24T17:42:44.195Z,18.60
2018-04-24T17:45:10.223Z,18.40
2018-04-24T17:47:36.246Z,18.20
2018-04-24T17:50:02.324Z,18.00
2018-04-24T17:52:28.317Z,17.80
2018-04-24T17:54:54.410Z,17.60
2018-04-24T17:57:20.434Z,17.40
2018-04-24T17:59:46.454Z,17.20
2018-04-24T18:02:12.487Z,17.00
2018-04-24T18:04:38.505Z,16.80
2018-04-24T18:07:04.577Z,16.60
2018-04-24T18:09:30.605Z,16.40
2018-04-24T18:11:56.633Z,16.30
2018-04-24T18:14:22.649Z,16.10
2018-04-24T18:16:48.736Z,16.00
2018-04-24T18:19:15.512Z,15.70
2018-04-24T18:21:42.270Z,15.60
2018-04-24T18:24:09.052Z,15.50
2018-04-24T18:26:35.116Z,15.50
2018-04-24T18:29:01.128Z,15.30
2018-04-24T18:31:27.150Z,15.20
2018-04-24T18:33:53.161Z,15.10
2018-04-24T18:36:19.897Z,14.90
2018-04-24T18:38:45.904Z,14.90
2018-04-24T18:41:11.910Z,14.90
2018-04-24T18:43:37.916Z,14.80
2018-04-24T18:46:04.718Z,14.70
2018-04-24T18:48:30.846Z,14.70
2018-04-24T18:50:56.925Z,14.70
2018-04-24T18:53:22.933Z,14.70
2018-04-24T18:55:48.974Z,14.60
2018-04-24T18:58:15.014Z,14.50
2018-04-24T19:00:41.013Z,14.40
2018-04-24T19:03:07.020Z,14.40
2018-04-24T19:05:33.777Z,14.20
2018-04-24T19:08:00.597Z,14.20
2018-04-24T19:10:26.614Z,14.20
2018-04-24T19:12:52.661Z,14.20
2018-04-24T19:15:18.661Z,14.20
2018-04-24T19:17:44.728Z,14.10
2018-04-24T19:20:10.745Z,14.00
2018-04-24T19:22:36.743Z,14.00
2018-04-24T19:25:08.849Z,14.00
2018-04-24T19:29:58.121Z,13.90
2018-04-24T19:32:29.941Z,13.90
2018-04-24T19:34:55.956Z,13.90
2018-04-24T19:37:21.960Z,13.90
2018-04-24T19:39:54.925Z,13.80
2018-04-24T19:42:20.928Z,13.80
2018-04-24T19:44:46.946Z,13.80
2018-04-24T19:47:12.966Z,13.80
2018-04-24T19:49:45.843Z,13.70
2018-04-24T19:52:11.848Z,13.70
2018-04-24T19:54:37.869Z,13.60
2018-04-24T19:57:03.894Z,13.60
2018-04-24T19:59:29.905Z,13.50
2018-04-24T20:01:56.673Z,13.50
2018-04-24T20:04:22.751Z,13.50
2018-04-24T20:06:48.794Z,13.40
2018-04-24T20:09:14.817Z,13.50
2018-04-24T20:11:40.850Z,13.50
2018-04-24T20:14:06.852Z,13.50
2018-04-24T20:16:32.878Z,13.50
2018-04-24T20:18:59.617Z,13.50
2018-04-24T20:21:25.626Z,13.50
2018-04-24T20:23:51.729Z,13.40
2018-04-24T20:26:17.823Z,13.40
2018-04-24T20:28:43.849Z,13.30
2018-04-24T20:31:09.878Z,13.30
2018-04-24T20:33:35.938Z,13.20
2018-04-24T20:36:02.717Z,13.20
2018-04-24T20:38:28.797Z,13.10
2018-04-24T20:40:54.849Z,13.20
2018-04-24T20:43:20.882Z,13.10
2018-04-24T20:45:47.049Z,13.10
2018-04-24T20:48:13.819Z,13.10
2018-04-24T20:50:39.900Z,13.10
2018-04-24T20:53:05.942Z,13.10
2018-04-24T20:55:32.033Z,13.10
2018-04-24T20:57:58.123Z,13.20
2018-04-24T21:00:24.188Z,13.10
2018-04-24T21:02:50.210Z,13.10
2018-04-24T21:05:16.977Z,13.10
2018-04-24T21:07:43.737Z,13.10
2018-04-24T21:10:09.774Z,13.10
2018-04-24T21:12:35.797Z,13.10
2018-04-24T21:15:02.574Z,13.10
2018-04-24T21:17:28.670Z,13.10
2018-04-24T21:19:54.697Z,13.10
2018-04-24T21:22:20.730Z,13.10
2018-04-24T21:24:46.785Z,13.00
2018-04-24T21:27:13.550Z,12.90
2018-04-24T21:29:40.331Z,12.90
2018-04-24T21:32:06.354Z,12.90
2018-04-24T21:34:32.788Z,12.90
2018-04-24T21:36:59.061Z,12.90
2018-04-24T21:39:25.074Z,13.00
2018-04-24T21:41:51.108Z,13.00
2018-04-24T21:44:17.209Z,13.10
2018-04-24T21:46:43.240Z,13.10
2018-04-24T21:49:09.257Z,13.10
2018-04-24T21:51:35.284Z,13.20
2018-04-24T21:54:01.306Z,13.20
2018-04-24T21:56:27.345Z,13.20
2018-04-24T21:58:53.669Z,13.10
2018-04-24T22:01:19.693Z,12.90
2018-04-24T22:03:46.452Z,12.80
2018-04-24T22:06:13.205Z,12.70
2018-04-24T22:08:39.233Z,12.70
2018-04-24T22:11:05.993Z,12.60
2018-04-24T22:13:32.768Z,12.60
2018-04-24T22:15:58.841Z,12.50
2018-04-24T22:18:24.861Z,12.50
2018-04-24T22:20:50.884Z,12.40
2018-04-24T22:23:16.952Z,12.40
2018-04-24T22:25:42.937Z,12.30
2018-04-24T22:28:08.970Z,12.30
2018-04-24T22:30:34.993Z,12.30
2018-04-24T22:33:01.774Z,12.30
2018-04-24T22:35:27.802Z,12.20
2018-04-24T22:37:53.837Z,12.20
2018-04-24T22:40:19.857Z,12.30
2018-04-24T22:42:46.629Z,12.20
2018-04-24T22:45:12.656Z,12.20
2018-04-24T22:47:38.677Z,12.20
2018-04-24T22:50:05.433Z,12.20
2018-04-24T22:52:32.229Z,12.20
2018-04-24T22:54:58.253Z,12.20
2018-04-24T22:57:24.270Z,12.10
2018-04-24T22:59:50.298Z,12.20
2018-04-24T23:02:17.077Z,12.20
2018-04-24T23:04:43.156Z,12.20
2018-04-24T23:07:09.173Z,12.30
2018-04-24T23:09:35.216Z,12.30
2018-04-24T23:12:13.625Z,12.30
2018-04-24T23:14:52.135Z,12.30
2018-04-24T23:17:31.338Z,12.10
2018-04-24T23:20:09.756Z,12.10
2018-04-24T23:22:35.785Z,12.00
2018-04-24T23:25:01.808Z,12.00
2018-04-24T23:27:27.849Z,11.90
2018-04-24T23:29:53.889Z,12.00
2018-04-24T23:32:19.921Z,11.90
2018-04-24T23:34:45.960Z,11.80
2018-04-24T23:37:11.985Z,11.80
2018-04-24T23:39:38.021Z,11.70
2018-04-24T23:42:04.057Z,11.70
2018-04-24T23:44:30.126Z,11.70
2018-04-24T23:46:56.166Z,11.70
2018-04-24T23:49:22.224Z,11.60
2018-04-24T23:51:48.993Z,11.60
2018-04-24T23:54:15.026Z,11.50
2018-04-24T23:56:41.061Z,11.50
2018-04-24T23:59:07.162Z,11.50
